KFAM/FAM METAR and TAF weather

Enter ICAO airport designator
Station Type Date Time Source
KFAM METAR 2019/05/27 08:56 UTC NOAA

KFAM 270856Z AUTO 00000KT 10SM CLR 19/18 A3001 RMK AO2 SLP153 T01890183 56013


Station Type Date Time Source
KFAM Decoded METAR 2019/05/27 08:56 UTC NOAA

Farmington Airport, MO, United States (KFAM) 37-46N 090-26W
May 27, 2019 - 04:56 AM EDT / 2019.05.27 0856 UTC
Wind: Calm:0
Visibility: 10 mile(s):0
Sky conditions: clear
Temperature: 66.0 F (18.9 C)
Dew Point: 64.9 F (18.3 C)
Relative Humidity: 96%
Pressure (altimeter): 30.01 in. Hg (1016 hPa)
Pressure tendency: 0.04 inches (1.3 hPa) lower than three hours ago
ob: KFAM 270856Z AUTO 00000KT 10SM CLR 19/18 A3001 RMK AO2 SLP153 T01890183 56013
cycle: 9

Station Type Date Time Source
KFAM TAF UTC NOAA

Error!

Example: see airport list